Météo des aéroports (METAR) proches de Ticheville

 

LFRG - St Gatien, France
Distance from station: N 52km
Mise à jour: 14/08/2018 17:30
Few Clouds
Few Clouds
 Wind from NO
Vent: NO 13 km/h
Température: 21°C
Point de rosée: 14°C
Humidité: 64%
Baromètre: 1020 hPa
Clouds: Few Clouds
Visibility: 10 km
Cloud details: Few Clouds 853 m
2018/08/14 15:30 LFRG 141530Z AUTO 31007KT 280V360 9999 FEW028 21/14 Q1020 NOSIG
LFRK - Caen/Carpiquet(A, France
Distance from station: ONO 60km
Mise à jour: 14/08/2018 17:30
nuageux
nuageux
 Wind from O
Vent: O 19 km/h
Température: 22°C
Point de rosée: 15°C
Humidité: 65%
Baromètre: 1020 hPa
Clouds: nuageux
Visibility: 10 km
Cloud details: Few Clouds 1128 m
partiellement nuageux 1311 m
nuageux 1494 m
2018/08/14 15:30 LFRK 141530Z AUTO 28010KT 9999 FEW037 SCT043 BKN049 22/15 Q1020 NOSIG
 
LFOH - Le Havre/Octevil, France
Distance from station: NNO 69km
Mise à jour: 14/08/2018 17:30
nuageux
nuageux
 Wind from O
Vent: O 11 km/h
Température: 19°C
Point de rosée: 16°C
Humidité: 83%
Baromètre: 1020 hPa
Clouds: nuageux
Visibility: 10 km
Cloud details: nuageux 1463 m
2018/08/14 15:30 LFOH 141530Z AUTO 28006KT 250V310 9999 BKN048 19/16 Q1020 NOSIG
LFOE - Evreux/Fauville, France
Distance from station: E 70km
Mise à jour: 14/08/2018 17:30
nuageux
nuageux
 Wind from O
Vent: O 20 km/h
Température: 22°C
Point de rosée: 13°C
Humidité: 57%
Baromètre: 1020 hPa
Clouds: nuageux
Visibility: 10 km
Cloud details: Few Clouds 1158 m
nuageux 1585 m
2018/08/14 15:30 LFOE 141530Z AUTO 28011KT 250V310 9999 FEW038 BKN052 22/13 Q1020 NOSIG
 
LFOP - Rouen/Boos (aut), France
Distance from station: NE 83km
Mise à jour: 14/08/2018 17:30
nuageux
nuageux
 Wind from ONO
Vent: ONO 19 km/h
Température: 21°C
Point de rosée: 13°C
Humidité: 60%
Baromètre: 1020 hPa
Clouds: nuageux
Visibility: 10 km
Cloud details: Few Clouds 1128 m
nuageux 1433 m
2018/08/14 15:30 LFOP 141530Z AUTO 30010KT 9999 FEW037 BKN047 21/13 Q1020 NOSIG
LFRM - Le Mans/Arnage(A, France
Distance from station: S 107km
Mise à jour: 14/08/2018 17:30
couvert
couvert
 Wind from varies
Vent: varies 7 km/h
Température: 24°C
Point de rosée: 14°C
Humidité: 54%
Baromètre: 1020 hPa
Clouds: couvert
Visibility: 10 km
Cloud details: Few Clouds 1219 m
couvert 1646 m
2018/08/14 15:30 LFRM 141530Z AUTO VRB04KT 9999 FEW040 OVC054 24/14 Q1020 NOSIG